sensor_id;sensor_type;location;lat;lon;timestamp;temperature;humidity
20885;DHT22;10602;48.000;9.654;2023-03-23T00:01:26;6.80;1.00
20885;DHT22;10602;48.000;9.654;2023-03-23T00:03:57;6.80;1.00
20885;DHT22;10602;48.000;9.654;2023-03-23T00:06:26;6.80;1.00
20885;DHT22;10602;48.000;9.654;2023-03-23T00:08:56;6.80;1.00
20885;DHT22;10602;48.000;9.654;2023-03-23T00:11:30;6.80;1.00
20885;DHT22;10602;48.000;9.654;2023-03-23T00:13:59;6.90;1.00
20885;DHT22;10602;48.000;9.654;2023-03-23T00:16:29;6.90;1.00
20885;DHT22;10602;48.000;9.654;2023-03-23T00:19:08;6.90;1.00
20885;DHT22;10602;48.000;9.654;2023-03-23T00:21:36;7.00;1.00
20885;DHT22;10602;48.000;9.654;2023-03-23T00:24:10;7.00;1.00
20885;DHT22;10602;48.000;9.654;2023-03-23T00:26:39;7.10;1.00
20885;DHT22;10602;48.000;9.654;2023-03-23T00:29:15;7.10;1.00
20885;DHT22;10602;48.000;9.654;2023-03-23T00:31:44;7.10;1.00
20885;DHT22;10602;48.000;9.654;2023-03-23T00:34:17;7.10;1.00
20885;DHT22;10602;48.000;9.654;2023-03-23T00:36:47;7.10;1.00
20885;DHT22;10602;48.000;9.654;2023-03-23T00:39:16;7.10;1.00
20885;DHT22;10602;48.000;9.654;2023-03-23T00:41:45;7.20;1.00
20885;DHT22;10602;48.000;9.654;2023-03-23T00:44:13;7.20;1.00
20885;DHT22;10602;48.000;9.654;2023-03-23T00:46:45;7.20;1.00
20885;DHT22;10602;48.000;9.654;2023-03-23T00:49:13;7.20;1.00
20885;DHT22;10602;48.000;9.654;2023-03-23T00:51:48;7.20;1.00
20885;DHT22;10602;48.000;9.654;2023-03-23T00:54:16;7.20;1.00
20885;DHT22;10602;48.000;9.654;2023-03-23T00:56:47;7.20;1.00
20885;DHT22;10602;48.000;9.654;2023-03-23T00:59:14;7.20;1.00
20885;DHT22;10602;48.000;9.654;2023-03-23T01:01:42;7.50;1.00
20885;DHT22;10602;48.000;9.654;2023-03-23T01:04:10;7.20;1.00
20885;DHT22;10602;48.000;9.654;2023-03-23T01:06:41;7.20;1.00
20885;DHT22;10602;48.000;9.654;2023-03-23T01:09:13;7.20;1.00
20885;DHT22;10602;48.000;9.654;2023-03-23T01:11:43;7.10;1.00
20885;DHT22;10602;48.000;9.654;2023-03-23T01:14:12;7.10;1.00
20885;DHT22;10602;48.000;9.654;2023-03-23T01:19:48;6.90;1.00
20885;DHT22;10602;48.000;9.654;2023-03-23T01:22:16;6.90;1.00
20885;DHT22;10602;48.000;9.654;2023-03-23T01:24:50;6.90;1.00
20885;DHT22;10602;48.000;9.654;2023-03-23T01:27:15;6.90;1.00
20885;DHT22;10602;48.000;9.654;2023-03-23T01:29:43;6.90;1.00
20885;DHT22;10602;48.000;9.654;2023-03-23T01:32:11;6.90;1.00
20885;DHT22;10602;48.000;9.654;2023-03-23T01:34:38;6.90;1.00
20885;DHT22;10602;48.000;9.654;2023-03-23T01:37:06;6.80;1.00
20885;DHT22;10602;48.000;9.654;2023-03-23T01:39:35;6.80;1.00
20885;DHT22;10602;48.000;9.654;2023-03-23T01:42:03;6.80;1.00
20885;DHT22;10602;48.000;9.654;2023-03-23T01:47:01;6.80;1.00
20885;DHT22;10602;48.000;9.654;2023-03-23T01:49:34;6.90;1.00
20885;DHT22;10602;48.000;9.654;2023-03-23T01:52:05;6.90;1.00
20885;DHT22;10602;48.000;9.654;2023-03-23T01:54:35;6.90;1.00
20885;DHT22;10602;48.000;9.654;2023-03-23T01:57:07;7.00;1.00
20885;DHT22;10602;48.000;9.654;2023-03-23T01:59:35;7.00;1.00
20885;DHT22;10602;48.000;9.654;2023-03-23T02:02:03;7.10;1.00
20885;DHT22;10602;48.000;9.654;2023-03-23T02:04:31;7.10;1.00
20885;DHT22;10602;48.000;9.654;2023-03-23T02:07:00;7.10;1.00
20885;DHT22;10602;48.000;9.654;2023-03-23T02:09:28;7.10;1.00
20885;DHT22;10602;48.000;9.654;2023-03-23T02:11:56;7.10;1.00
20885;DHT22;10602;48.000;9.654;2023-03-23T02:14:26;7.10;1.00
20885;DHT22;10602;48.000;9.654;2023-03-23T02:16:57;7.10;1.00
20885;DHT22;10602;48.000;9.654;2023-03-23T02:19:54;7.20;1.00
20885;DHT22;10602;48.000;9.654;2023-03-23T02:30:48;7.20;1.00
20885;DHT22;10602;48.000;9.654;2023-03-23T02:41:43;7.10;1.00
20885;DHT22;10602;48.000;9.654;2023-03-23T02:44:12;7.10;1.00
20885;DHT22;10602;48.000;9.654;2023-03-23T02:46:41;7.00;1.00
20885;DHT22;10602;48.000;9.654;2023-03-23T02:49:12;7.00;1.00
20885;DHT22;10602;48.000;9.654;2023-03-23T02:51:40;7.10;1.00
20885;DHT22;10602;48.000;9.654;2023-03-23T02:54:09;7.10;1.00
20885;DHT22;10602;48.000;9.654;2023-03-23T02:56:38;7.20;1.00
20885;DHT22;10602;48.000;9.654;2023-03-23T02:59:07;7.20;1.00
20885;DHT22;10602;48.000;9.654;2023-03-23T03:04:10;7.20;1.00
20885;DHT22;10602;48.000;9.654;2023-03-23T03:07:02;7.30;1.00
20885;DHT22;10602;48.000;9.654;2023-03-23T03:09:50;7.30;1.00
20885;DHT22;10602;48.000;9.654;2023-03-23T03:12:34;7.30;1.00
20885;DHT22;10602;48.000;9.654;2023-03-23T03:15:07;7.30;1.00
20885;DHT22;10602;48.000;9.654;2023-03-23T03:17:36;7.30;1.00
20885;DHT22;10602;48.000;9.654;2023-03-23T03:20:07;7.40;1.00
20885;DHT22;10602;48.000;9.654;2023-03-23T03:22:42;7.50;1.00
20885;DHT22;10602;48.000;9.654;2023-03-23T03:25:12;7.50;1.00
20885;DHT22;10602;48.000;9.654;2023-03-23T03:27:43;7.70;1.00
20885;DHT22;10602;48.000;9.654;2023-03-23T03:30:13;7.70;1.00
20885;DHT22;10602;48.000;9.654;2023-03-23T03:32:47;7.80;1.00
20885;DHT22;10602;48.000;9.654;2023-03-23T03:35:15;7.90;1.00
20885;DHT22;10602;48.000;9.654;2023-03-23T03:37:43;7.90;1.00
20885;DHT22;10602;48.000;9.654;2023-03-23T03:40:16;8.00;1.00
20885;DHT22;10602;48.000;9.654;2023-03-23T03:42:45;8.10;1.00
20885;DHT22;10602;48.000;9.654;2023-03-23T03:45:16;8.20;1.00
20885;DHT22;10602;48.000;9.654;2023-03-23T03:47:44;8.20;1.00
20885;DHT22;10602;48.000;9.654;2023-03-23T03:50:11;8.20;1.00
20885;DHT22;10602;48.000;9.654;2023-03-23T03:52:39;8.20;1.00
20885;DHT22;10602;48.000;9.654;2023-03-23T03:55:07;8.20;1.00
20885;DHT22;10602;48.000;9.654;2023-03-23T03:57:35;8.30;1.00
20885;DHT22;10602;48.000;9.654;2023-03-23T04:00:04;8.40;1.00
20885;DHT22;10602;48.000;9.654;2023-03-23T04:02:48;8.40;1.00
20885;DHT22;10602;48.000;9.654;2023-03-23T04:05:18;8.40;1.00
20885;DHT22;10602;48.000;9.654;2023-03-23T04:07:47;8.30;1.00
20885;DHT22;10602;48.000;9.654;2023-03-23T04:10:16;8.30;1.00
20885;DHT22;10602;48.000;9.654;2023-03-23T04:12:46;8.20;1.00
20885;DHT22;10602;48.000;9.654;2023-03-23T04:15:14;8.10;1.00
20885;DHT22;10602;48.000;9.654;2023-03-23T04:17:42;8.10;1.00
20885;DHT22;10602;48.000;9.654;2023-03-23T04:20:10;8.00;1.00
20885;DHT22;10602;48.000;9.654;2023-03-23T04:22:43;8.00;1.00
20885;DHT22;10602;48.000;9.654;2023-03-23T04:25:12;8.00;1.00
20885;DHT22;10602;48.000;9.654;2023-03-23T04:27:41;8.00;1.00
20885;DHT22;10602;48.000;9.654;2023-03-23T04:30:14;8.10;1.00
20885;DHT22;10602;48.000;9.654;2023-03-23T04:32:45;8.10;1.00
20885;DHT22;10602;48.000;9.654;2023-03-23T04:35:14;8.10;1.00
20885;DHT22;10602;48.000;9.654;2023-03-23T04:37:53;8.20;1.00
20885;DHT22;10602;48.000;9.654;2023-03-23T04:43:21;8.20;1.00
20885;DHT22;10602;48.000;9.654;2023-03-23T04:45:55;8.20;1.00
20885;DHT22;10602;48.000;9.654;2023-03-23T04:48:29;8.20;1.00
20885;DHT22;10602;48.000;9.654;2023-03-23T04:50:53;8.20;1.00
20885;DHT22;10602;48.000;9.654;2023-03-23T04:53:21;8.20;1.00
20885;DHT22;10602;48.000;9.654;2023-03-23T04:55:49;8.30;1.00
20885;DHT22;10602;48.000;9.654;2023-03-23T04:58:17;8.30;1.00
20885;DHT22;10602;48.000;9.654;2023-03-23T05:00:44;8.40;1.00
20885;DHT22;10602;48.000;9.654;2023-03-23T05:03:13;8.40;1.00
20885;DHT22;10602;48.000;9.654;2023-03-23T05:05:43;8.50;1.00
20885;DHT22;10602;48.000;9.654;2023-03-23T05:08:13;8.60;1.00
20885;DHT22;10602;48.000;9.654;2023-03-23T05:10:41;8.70;99.90
20885;DHT22;10602;48.000;9.654;2023-03-23T05:13:08;8.70;99.90
20885;DHT22;10602;48.000;9.654;2023-03-23T05:15:36;8.80;1.00
20885;DHT22;10602;48.000;9.654;2023-03-23T05:18:04;8.80;1.00
20885;DHT22;10602;48.000;9.654;2023-03-23T05:20:31;8.70;1.00
20885;DHT22;10602;48.000;9.654;2023-03-23T05:23:00;8.70;1.00
20885;DHT22;10602;48.000;9.654;2023-03-23T05:25:27;8.70;62.30
20885;DHT22;10602;48.000;9.654;2023-03-23T05:28:13;8.70;1.00
20885;DHT22;10602;48.000;9.654;2023-03-23T05:30:58;8.70;1.00
20885;DHT22;10602;48.000;9.654;2023-03-23T05:46:27;8.40;1.00
20885;DHT22;10602;48.000;9.654;2023-03-23T05:48:54;8.30;1.00
20885;DHT22;10602;48.000;9.654;2023-03-23T05:51:21;8.30;1.00
20885;DHT22;10602;48.000;9.654;2023-03-23T05:53:49;8.30;1.00
20885;DHT22;10602;48.000;9.654;2023-03-23T05:56:17;8.40;1.00
20885;DHT22;10602;48.000;9.654;2023-03-23T05:58:44;8.50;1.00
20885;DHT22;10602;48.000;9.654;2023-03-23T06:01:15;8.50;99.90
20885;DHT22;10602;48.000;9.654;2023-03-23T06:03:46;8.70;99.90
20885;DHT22;10602;48.000;9.654;2023-03-23T06:06:12;8.70;26.80
20885;DHT22;10602;48.000;9.654;2023-03-23T06:08:39;8.80;1.00
20885;DHT22;10602;48.000;9.654;2023-03-23T06:11:07;8.90;62.30
20885;DHT22;10602;48.000;9.654;2023-03-23T06:13:34;8.90;1.00
20885;DHT22;10602;48.000;9.654;2023-03-23T06:16:03;8.90;1.00
20885;DHT22;10602;48.000;9.654;2023-03-23T06:18:31;9.00;1.00
20885;DHT22;10602;48.000;9.654;2023-03-23T06:21:00;9.10;1.00
20885;DHT22;10602;48.000;9.654;2023-03-23T06:23:28;9.20;1.00
20885;DHT22;10602;48.000;9.654;2023-03-23T06:26:01;9.20;99.90
20885;DHT22;10602;48.000;9.654;2023-03-23T06:28:30;9.40;99.90
20885;DHT22;10602;48.000;9.654;2023-03-23T06:30:59;9.50;1.00
20885;DHT22;10602;48.000;9.654;2023-03-23T06:33:28;9.50;1.00
20885;DHT22;10602;48.000;9.654;2023-03-23T06:35:55;9.60;99.90
20885;DHT22;10602;48.000;9.654;2023-03-23T06:38:24;9.60;99.90
20885;DHT22;10602;48.000;9.654;2023-03-23T06:40:53;9.70;93.70
20885;DHT22;10602;48.000;9.654;2023-03-23T06:43:22;9.70;99.90
20885;DHT22;10602;48.000;9.654;2023-03-23T06:45:49;9.70;1.00
20885;DHT22;10602;48.000;9.654;2023-03-23T06:48:17;9.80;17.60
20885;DHT22;10602;48.000;9.654;2023-03-23T06:50:46;9.90;27.00
20885;DHT22;10602;48.000;9.654;2023-03-23T06:53:13;9.90;87.90
20885;DHT22;10602;48.000;9.654;2023-03-23T06:55:43;10.00;1.00
20885;DHT22;10602;48.000;9.654;2023-03-23T06:58:11;10.00;1.00
20885;DHT22;10602;48.000;9.654;2023-03-23T07:00:39;10.10;1.00
20885;DHT22;10602;48.000;9.654;2023-03-23T07:03:07;10.20;99.90
20885;DHT22;10602;48.000;9.654;2023-03-23T07:05:35;10.40;1.00
20885;DHT22;10602;48.000;9.654;2023-03-23T07:08:04;10.50;1.00
20885;DHT22;10602;48.000;9.654;2023-03-23T07:10:31;10.60;1.00
20885;DHT22;10602;48.000;9.654;2023-03-23T07:12:59;10.80;99.90
20885;DHT22;10602;48.000;9.654;2023-03-23T07:15:27;10.90;58.80
20885;DHT22;10602;48.000;9.654;2023-03-23T07:17:54;11.00;1.00
20885;DHT22;10602;48.000;9.654;2023-03-23T07:20:22;11.20;1.00
20885;DHT22;10602;48.000;9.654;2023-03-23T07:22:50;11.30;1.00
20885;DHT22;10602;48.000;9.654;2023-03-23T07:25:18;11.30;1.00
20885;DHT22;10602;48.000;9.654;2023-03-23T07:27:46;11.30;1.00
20885;DHT22;10602;48.000;9.654;2023-03-23T07:30:14;11.20;1.00
20885;DHT22;10602;48.000;9.654;2023-03-23T07:32:42;11.20;1.00
20885;DHT22;10602;48.000;9.654;2023-03-23T07:35:10;11.20;1.00
20885;DHT22;10602;48.000;9.654;2023-03-23T07:37:37;11.30;1.00
20885;DHT22;10602;48.000;9.654;2023-03-23T07:40:06;11.30;1.00
20885;DHT22;10602;48.000;9.654;2023-03-23T07:42:35;11.50;1.00
20885;DHT22;10602;48.000;9.654;2023-03-23T07:45:02;11.60;1.00
20885;DHT22;10602;48.000;9.654;2023-03-23T07:47:30;11.70;1.00
20885;DHT22;10602;48.000;9.654;2023-03-23T07:49:57;11.90;1.00
20885;DHT22;10602;48.000;9.654;2023-03-23T07:52:25;12.00;1.00
20885;DHT22;10602;48.000;9.654;2023-03-23T07:54:53;12.20;99.90
20885;DHT22;10602;48.000;9.654;2023-03-23T07:57:20;12.40;99.90
20885;DHT22;10602;48.000;9.654;2023-03-23T07:59:48;12.70;99.90
20885;DHT22;10602;48.000;9.654;2023-03-23T08:02:16;12.80;99.90
20885;DHT22;10602;48.000;9.654;2023-03-23T08:04:43;13.10;99.90
20885;DHT22;10602;48.000;9.654;2023-03-23T08:07:11;13.20;60.50
20885;DHT22;10602;48.000;9.654;2023-03-23T08:09:39;13.40;27.60
20885;DHT22;10602;48.000;9.654;2023-03-23T08:12:06;13.60;1.00
20885;DHT22;10602;48.000;9.654;2023-03-23T08:14:34;13.80;1.00
20885;DHT22;10602;48.000;9.654;2023-03-23T08:17:01;13.90;1.00
20885;DHT22;10602;48.000;9.654;2023-03-23T08:19:29;14.10;1.00
20885;DHT22;10602;48.000;9.654;2023-03-23T08:21:57;14.30;1.00
20885;DHT22;10602;48.000;9.654;2023-03-23T08:24:24;14.40;1.00
20885;DHT22;10602;48.000;9.654;2023-03-23T08:26:52;14.50;1.00
20885;DHT22;10602;48.000;9.654;2023-03-23T08:29:20;14.60;1.00
20885;DHT22;10602;48.000;9.654;2023-03-23T08:31:48;14.70;1.00
20885;DHT22;10602;48.000;9.654;2023-03-23T08:34:16;14.80;1.00
20885;DHT22;10602;48.000;9.654;2023-03-23T08:36:43;14.90;1.00
20885;DHT22;10602;48.000;9.654;2023-03-23T08:39:13;15.20;1.00
20885;DHT22;10602;48.000;9.654;2023-03-23T08:41:41;15.30;1.00
20885;DHT22;10602;48.000;9.654;2023-03-23T08:44:10;15.30;1.00
20885;DHT22;10602;48.000;9.654;2023-03-23T08:46:38;15.40;1.00
20885;DHT22;10602;48.000;9.654;2023-03-23T08:49:06;15.40;1.00
20885;DHT22;10602;48.000;9.654;2023-03-23T08:51:33;15.40;1.00
20885;DHT22;10602;48.000;9.654;2023-03-23T08:54:02;15.30;1.00
20885;DHT22;10602;48.000;9.654;2023-03-23T08:56:29;15.20;1.00
20885;DHT22;10602;48.000;9.654;2023-03-23T08:58:57;15.30;1.00
20885;DHT22;10602;48.000;9.654;2023-03-23T09:01:24;15.30;1.00
20885;DHT22;10602;48.000;9.654;2023-03-23T09:03:53;15.30;1.00
20885;DHT22;10602;48.000;9.654;2023-03-23T09:06:20;15.40;1.00
20885;DHT22;10602;48.000;9.654;2023-03-23T09:08:48;15.40;1.00
20885;DHT22;10602;48.000;9.654;2023-03-23T09:11:16;15.50;1.00
20885;DHT22;10602;48.000;9.654;2023-03-23T09:13:44;15.60;1.00
20885;DHT22;10602;48.000;9.654;2023-03-23T09:16:11;15.70;1.00
20885;DHT22;10602;48.000;9.654;2023-03-23T09:18:39;15.90;1.00
20885;DHT22;10602;48.000;9.654;2023-03-23T09:21:06;15.80;1.00
20885;DHT22;10602;48.000;9.654;2023-03-23T09:23:35;15.90;1.00
20885;DHT22;10602;48.000;9.654;2023-03-23T09:26:03;15.90;1.00
20885;DHT22;10602;48.000;9.654;2023-03-23T09:28:31;15.90;1.00
20885;DHT22;10602;48.000;9.654;2023-03-23T09:30:58;15.90;1.00
20885;DHT22;10602;48.000;9.654;2023-03-23T09:33:26;15.80;1.00
20885;DHT22;10602;48.000;9.654;2023-03-23T09:35:55;15.80;1.00
20885;DHT22;10602;48.000;9.654;2023-03-23T09:38:23;15.80;1.00
20885;DHT22;10602;48.000;9.654;2023-03-23T09:49:09;16.00;1.00
20885;DHT22;10602;48.000;9.654;2023-03-23T09:51:51;16.00;1.00
20885;DHT22;10602;48.000;9.654;2023-03-23T09:56:50;16.10;1.00
20885;DHT22;10602;48.000;9.654;2023-03-23T10:02:03;16.00;1.00
20885;DHT22;10602;48.000;9.654;2023-03-23T10:04:33;16.10;1.00
20885;DHT22;10602;48.000;9.654;2023-03-23T10:07:09;16.10;1.00
20885;DHT22;10602;48.000;9.654;2023-03-23T10:09:33;16.30;1.00
20885;DHT22;10602;48.000;9.654;2023-03-23T10:12:19;16.40;1.00
20885;DHT22;10602;48.000;9.654;2023-03-23T10:14:58;16.50;1.00
20885;DHT22;10602;48.000;9.654;2023-03-23T10:18:15;16.70;1.00
20885;DHT22;10602;48.000;9.654;2023-03-23T10:20:13;16.50;1.00
20885;DHT22;10602;48.000;9.654;2023-03-23T10:22:39;16.50;1.00
20885;DHT22;10602;48.000;9.654;2023-03-23T10:27:55;16.50;1.00
20885;DHT22;10602;48.000;9.654;2023-03-23T10:31:10;16.70;1.00
20885;DHT22;10602;48.000;9.654;2023-03-23T10:32:55;16.60;1.00
20885;DHT22;10602;48.000;9.654;2023-03-23T10:35:37;16.50;1.00
20885;DHT22;10602;48.000;9.654;2023-03-23T10:38:09;16.60;1.00
20885;DHT22;10602;48.000;9.654;2023-03-23T10:40:43;16.60;1.00
20885;DHT22;10602;48.000;9.654;2023-03-23T10:43:07;16.80;1.00
20885;DHT22;10602;48.000;9.654;2023-03-23T10:45:35;16.90;1.00
20885;DHT22;10602;48.000;9.654;2023-03-23T10:48:28;16.80;1.00
20885;DHT22;10602;48.000;9.654;2023-03-23T10:50:54;16.80;1.00
20885;DHT22;10602;48.000;9.654;2023-03-23T10:53:26;16.80;1.00
20885;DHT22;10602;48.000;9.654;2023-03-23T10:55:52;16.90;1.00
20885;DHT22;10602;48.000;9.654;2023-03-23T10:58:27;16.80;1.00
20885;DHT22;10602;48.000;9.654;2023-03-23T11:00:57;16.80;1.00
20885;DHT22;10602;48.000;9.654;2023-03-23T11:03:41;16.60;1.00
20885;DHT22;10602;48.000;9.654;2023-03-23T11:06:18;16.40;1.00
20885;DHT22;10602;48.000;9.654;2023-03-23T11:08:48;16.40;1.00
20885;DHT22;10602;48.000;9.654;2023-03-23T11:11:19;16.40;1.00
20885;DHT22;10602;48.000;9.654;2023-03-23T11:13:49;16.40;1.00
20885;DHT22;10602;48.000;9.654;2023-03-23T11:18:54;16.60;1.00
20885;DHT22;10602;48.000;9.654;2023-03-23T11:21:23;16.60;1.00
20885;DHT22;10602;48.000;9.654;2023-03-23T11:23:54;16.50;1.00
20885;DHT22;10602;48.000;9.654;2023-03-23T11:26:28;16.40;1.00
20885;DHT22;10602;48.000;9.654;2023-03-23T11:29:17;16.30;1.00
20885;DHT22;10602;48.000;9.654;2023-03-23T11:31:50;16.40;1.00
20885;DHT22;10602;48.000;9.654;2023-03-23T11:34:24;16.40;1.00
20885;DHT22;10602;48.000;9.654;2023-03-23T11:37:07;16.40;1.00
20885;DHT22;10602;48.000;9.654;2023-03-23T11:39:55;16.50;1.00
20885;DHT22;10602;48.000;9.654;2023-03-23T11:42:36;16.60;1.00
20885;DHT22;10602;48.000;9.654;2023-03-23T11:48:29;16.90;1.00
20885;DHT22;10602;48.000;9.654;2023-03-23T11:53:55;17.30;1.00
20885;DHT22;10602;48.000;9.654;2023-03-23T11:56:43;17.30;1.00
20885;DHT22;10602;48.000;9.654;2023-03-23T11:59:25;17.20;1.00
20885;DHT22;10602;48.000;9.654;2023-03-23T12:01:58;17.20;1.00
20885;DHT22;10602;48.000;9.654;2023-03-23T12:07:12;17.00;1.00
20885;DHT22;10602;48.000;9.654;2023-03-23T12:15:10;16.60;1.00
20885;DHT22;10602;48.000;9.654;2023-03-23T12:17:59;16.60;1.00
20885;DHT22;10602;48.000;9.654;2023-03-23T12:34:58;16.60;1.00
20885;DHT22;10602;48.000;9.654;2023-03-23T12:42:56;17.20;1.00
20885;DHT22;10602;48.000;9.654;2023-03-23T12:45:57;17.10;1.00
20885;DHT22;10602;48.000;9.654;2023-03-23T12:48:35;17.20;1.00
20885;DHT22;10602;48.000;9.654;2023-03-23T12:51:03;17.30;1.00
20885;DHT22;10602;48.000;9.654;2023-03-23T12:53:40;17.40;1.00
20885;DHT22;10602;48.000;9.654;2023-03-23T12:56:37;17.60;1.00
20885;DHT22;10602;48.000;9.654;2023-03-23T13:02:10;17.60;1.00
20885;DHT22;10602;48.000;9.654;2023-03-23T13:04:41;17.00;1.00
20885;DHT22;10602;48.000;9.654;2023-03-23T13:07:14;16.90;1.00
20885;DHT22;10602;48.000;9.654;2023-03-23T13:09:48;16.80;1.00
20885;DHT22;10602;48.000;9.654;2023-03-23T13:12:16;16.60;1.00
20885;DHT22;10602;48.000;9.654;2023-03-23T13:26:09;16.00;1.00
20885;DHT22;10602;48.000;9.654;2023-03-23T13:29:00;15.90;1.00
20885;DHT22;10602;48.000;9.654;2023-03-23T13:31:31;15.90;1.00
20885;DHT22;10602;48.000;9.654;2023-03-23T13:34:05;16.00;1.00
20885;DHT22;10602;48.000;9.654;2023-03-23T13:36:38;16.00;1.00
20885;DHT22;10602;48.000;9.654;2023-03-23T13:39:19;16.00;1.00
20885;DHT22;10602;48.000;9.654;2023-03-23T13:42:21;16.00;1.00
20885;DHT22;10602;48.000;9.654;2023-03-23T13:44:24;16.00;1.00
20885;DHT22;10602;48.000;9.654;2023-03-23T13:47:07;15.90;1.00
20885;DHT22;10602;48.000;9.654;2023-03-23T13:49:44;16.00;1.00
20885;DHT22;10602;48.000;9.654;2023-03-23T13:52:18;16.00;1.00
20885;DHT22;10602;48.000;9.654;2023-03-23T13:54:46;16.00;1.00
20885;DHT22;10602;48.000;9.654;2023-03-23T13:57:34;16.00;1.00
20885;DHT22;10602;48.000;9.654;2023-03-23T14:00:22;16.00;1.00
20885;DHT22;10602;48.000;9.654;2023-03-23T14:02:41;16.10;1.00
20885;DHT22;10602;48.000;9.654;2023-03-23T14:07:59;16.10;1.00
20885;DHT22;10602;48.000;9.654;2023-03-23T14:10:44;16.20;1.00
20885;DHT22;10602;48.000;9.654;2023-03-23T14:13:15;16.20;1.00
20885;DHT22;10602;48.000;9.654;2023-03-23T14:15:54;16.20;1.00
20885;DHT22;10602;48.000;9.654;2023-03-23T14:18:15;16.10;1.00
20885;DHT22;10602;48.000;9.654;2023-03-23T14:20:45;16.10;1.00
20885;DHT22;10602;48.000;9.654;2023-03-23T14:23:18;16.10;1.00
20885;DHT22;10602;48.000;9.654;2023-03-23T14:25:58;16.10;1.00
20885;DHT22;10602;48.000;9.654;2023-03-23T14:28:30;16.00;1.00
20885;DHT22;10602;48.000;9.654;2023-03-23T14:30:57;16.00;1.00
20885;DHT22;10602;48.000;9.654;2023-03-23T14:33:25;16.00;1.00
20885;DHT22;10602;48.000;9.654;2023-03-23T14:35:56;15.90;1.00
20885;DHT22;10602;48.000;9.654;2023-03-23T14:38:24;15.80;1.00
20885;DHT22;10602;48.000;9.654;2023-03-23T14:40:54;15.70;1.00
20885;DHT22;10602;48.000;9.654;2023-03-23T14:43:23;15.70;1.00
20885;DHT22;10602;48.000;9.654;2023-03-23T14:45:55;15.70;1.00
20885;DHT22;10602;48.000;9.654;2023-03-23T14:48:22;15.70;1.00
20885;DHT22;10602;48.000;9.654;2023-03-23T14:50:58;15.80;1.00
20885;DHT22;10602;48.000;9.654;2023-03-23T14:53:38;15.80;1.00
20885;DHT22;10602;48.000;9.654;2023-03-23T14:56:14;15.80;1.00
20885;DHT22;10602;48.000;9.654;2023-03-23T14:58:49;15.80;1.00
20885;DHT22;10602;48.000;9.654;2023-03-23T15:01:26;15.80;1.00
20885;DHT22;10602;48.000;9.654;2023-03-23T15:04:05;15.80;1.00
20885;DHT22;10602;48.000;9.654;2023-03-23T15:06:35;15.80;1.00
20885;DHT22;10602;48.000;9.654;2023-03-23T15:09:06;15.60;1.00
20885;DHT22;10602;48.000;9.654;2023-03-23T15:11:35;15.70;1.00
20885;DHT22;10602;48.000;9.654;2023-03-23T15:14:19;15.60;1.00
20885;DHT22;10602;48.000;9.654;2023-03-23T15:16:47;15.60;1.00
20885;DHT22;10602;48.000;9.654;2023-03-23T15:19:21;15.50;1.00
20885;DHT22;10602;48.000;9.654;2023-03-23T15:21:56;15.50;1.00
20885;DHT22;10602;48.000;9.654;2023-03-23T15:24:39;15.50;1.00
20885;DHT22;10602;48.000;9.654;2023-03-23T15:27:15;15.50;1.00
20885;DHT22;10602;48.000;9.654;2023-03-23T15:29:51;15.40;1.00
20885;DHT22;10602;48.000;9.654;2023-03-23T15:32:24;15.40;1.00
20885;DHT22;10602;48.000;9.654;2023-03-23T15:34:52;15.40;1.00
20885;DHT22;10602;48.000;9.654;2023-03-23T15:37:32;15.30;1.00
20885;DHT22;10602;48.000;9.654;2023-03-23T15:40:01;15.30;1.00
20885;DHT22;10602;48.000;9.654;2023-03-23T15:42:31;15.30;1.00
20885;DHT22;10602;48.000;9.654;2023-03-23T15:53:08;15.10;1.00
20885;DHT22;10602;48.000;9.654;2023-03-23T15:55:36;15.00;1.00
20885;DHT22;10602;48.000;9.654;2023-03-23T15:58:11;15.00;1.00
20885;DHT22;10602;48.000;9.654;2023-03-23T16:00:39;14.90;1.00
20885;DHT22;10602;48.000;9.654;2023-03-23T16:03:11;14.80;1.00
20885;DHT22;10602;48.000;9.654;2023-03-23T16:05:38;14.80;1.00
20885;DHT22;10602;48.000;9.654;2023-03-23T16:08:08;14.60;1.00
20885;DHT22;10602;48.000;9.654;2023-03-23T16:10:37;14.60;1.00
20885;DHT22;10602;48.000;9.654;2023-03-23T16:13:04;14.60;1.00
20885;DHT22;10602;48.000;9.654;2023-03-23T16:15:32;14.60;1.00
20885;DHT22;10602;48.000;9.654;2023-03-23T16:18:00;14.60;1.00
20885;DHT22;10602;48.000;9.654;2023-03-23T16:20:29;14.50;1.00
20885;DHT22;10602;48.000;9.654;2023-03-23T16:22:58;14.50;1.00
20885;DHT22;10602;48.000;9.654;2023-03-23T16:25:26;14.50;1.00
20885;DHT22;10602;48.000;9.654;2023-03-23T16:27:54;14.50;1.00
20885;DHT22;10602;48.000;9.654;2023-03-23T16:30:24;14.50;1.00
20885;DHT22;10602;48.000;9.654;2023-03-23T16:32:51;14.50;1.00
20885;DHT22;10602;48.000;9.654;2023-03-23T16:35:20;14.50;1.00
20885;DHT22;10602;48.000;9.654;2023-03-23T16:37:50;14.50;1.00
20885;DHT22;10602;48.000;9.654;2023-03-23T16:40:21;14.40;1.00
20885;DHT22;10602;48.000;9.654;2023-03-23T16:42:49;14.40;1.00
20885;DHT22;10602;48.000;9.654;2023-03-23T16:45:17;14.40;1.00
20885;DHT22;10602;48.000;9.654;2023-03-23T16:47:44;14.40;1.00
20885;DHT22;10602;48.000;9.654;2023-03-23T16:50:14;14.40;1.00
20885;DHT22;10602;48.000;9.654;2023-03-23T16:52:43;14.40;1.00
20885;DHT22;10602;48.000;9.654;2023-03-23T16:55:14;14.40;1.00
20885;DHT22;10602;48.000;9.654;2023-03-23T16:57:41;14.40;1.00
20885;DHT22;10602;48.000;9.654;2023-03-23T17:00:12;14.30;1.00
20885;DHT22;10602;48.000;9.654;2023-03-23T17:02:41;14.30;1.00
20885;DHT22;10602;48.000;9.654;2023-03-23T17:05:10;14.30;1.00
20885;DHT22;10602;48.000;9.654;2023-03-23T17:07:39;14.30;1.00
20885;DHT22;10602;48.000;9.654;2023-03-23T17:10:09;14.20;1.00
20885;DHT22;10602;48.000;9.654;2023-03-23T17:12:36;14.20;1.00
20885;DHT22;10602;48.000;9.654;2023-03-23T17:15:05;14.20;1.00
20885;DHT22;10602;48.000;9.654;2023-03-23T17:17:33;14.20;1.00
20885;DHT22;10602;48.000;9.654;2023-03-23T17:20:01;14.10;1.00
20885;DHT22;10602;48.000;9.654;2023-03-23T17:22:30;14.10;1.00
20885;DHT22;10602;48.000;9.654;2023-03-23T17:24:57;14.00;1.00
20885;DHT22;10602;48.000;9.654;2023-03-23T17:27:25;14.00;1.00
20885;DHT22;10602;48.000;9.654;2023-03-23T17:29:53;13.90;1.00
20885;DHT22;10602;48.000;9.654;2023-03-23T17:32:21;13.80;1.00
20885;DHT22;10602;48.000;9.654;2023-03-23T17:34:52;13.70;1.00
20885;DHT22;10602;48.000;9.654;2023-03-23T17:37:20;13.70;1.00
20885;DHT22;10602;48.000;9.654;2023-03-23T17:39:48;13.60;1.00
20885;DHT22;10602;48.000;9.654;2023-03-23T17:42:15;13.60;1.00
20885;DHT22;10602;48.000;9.654;2023-03-23T17:44:43;13.60;1.00
20885;DHT22;10602;48.000;9.654;2023-03-23T17:47:11;13.50;15.70
20885;DHT22;10602;48.000;9.654;2023-03-23T17:49:39;13.50;35.40
20885;DHT22;10602;48.000;9.654;2023-03-23T17:52:07;13.40;73.20
20885;DHT22;10602;48.000;9.654;2023-03-23T17:54:34;13.40;99.90
20885;DHT22;10602;48.000;9.654;2023-03-23T17:57:02;13.30;99.90
20885;DHT22;10602;48.000;9.654;2023-03-23T17:59:30;13.30;99.90
20885;DHT22;10602;48.000;9.654;2023-03-23T18:01:57;13.30;99.90
20885;DHT22;10602;48.000;9.654;2023-03-23T18:04:25;13.30;99.90
20885;DHT22;10602;48.000;9.654;2023-03-23T18:06:56;13.20;99.90
20885;DHT22;10602;48.000;9.654;2023-03-23T18:09:24;13.20;99.90
20885;DHT22;10602;48.000;9.654;2023-03-23T18:11:52;13.10;99.90